OMA612 OMDB-OOMS
Flight info
| Callsign | OMA612 |
|---|---|
| Flight time | 0h 46m |
| Altitude | 25000 |
| Route | ANVIX L223 TARDI N629 MUSUK T511 MCT |
| Aircraft | B38M/M-SDE1FGHILORVWXY/HB1 |
Departure
| Time | 2026-04-26 16:41 |
|---|---|
| Airport | Dubai International Airport (OMDB) |
Arrival
| Time | 2026-04-26 17:27 |
|---|---|
| Airport | Muscat International Airport (OOMS) |
| Time | Latitude | Longitude | Altitude | Speed | Heading |
|---|---|---|---|---|---|
| 2026-04-26 16:13 | 25.26078 | 55.34116 | 37 ft | 0 kts | 157° |
| 2026-04-26 16:23 | 25.26084 | 55.34113 | 37 ft | 2 kts | 157° |
| 2026-04-26 16:23 | 25.26098 | 55.34107 | 37 ft | 2 kts | 156° |
| 2026-04-26 16:24 | 25.26110 | 55.34101 | 37 ft | 2 kts | 156° |
| 2026-04-26 16:24 | 25.26115 | 55.34099 | 37 ft | 1 kts | 157° |
| 2026-04-26 16:24 | 25.26124 | 55.34095 | 37 ft | 2 kts | 148° |
| 2026-04-26 16:24 | 25.26134 | 55.34083 | 37 ft | 2 kts | 115° |
| 2026-04-26 16:25 | 25.26137 | 55.34066 | 37 ft | 2 kts | 85° |
| 2026-04-26 16:25 | 25.26133 | 55.34050 | 37 ft | 2 kts | 59° |
| 2026-04-26 16:25 | 25.26126 | 55.34040 | 37 ft | 0 kts | 37° |
| 2026-04-26 16:25 | 25.26121 | 55.34036 | 37 ft | 1 kts | 32° |
| 2026-04-26 16:26 | 25.26119 | 55.34035 | 37 ft | 0 kts | 32° |
| 2026-04-26 16:28 | 25.26122 | 55.34037 | 37 ft | 2 kts | 33° |
| 2026-04-26 16:28 | 25.26163 | 55.34068 | 37 ft | 12 kts | 34° |
| 2026-04-26 16:28 | 25.26252 | 55.34131 | 37 ft | 15 kts | 49° |
| 2026-04-26 16:28 | 25.26234 | 55.34235 | 37 ft | 15 kts | 122° |
| 2026-04-26 16:29 | 25.26174 | 55.34343 | 37 ft | 17 kts | 122° |
| 2026-04-26 16:29 | 25.26110 | 55.34459 | 37 ft | 18 kts | 121° |
| 2026-04-26 16:29 | 25.26044 | 55.34578 | 37 ft | 19 kts | 121° |
| 2026-04-26 16:29 | 25.25970 | 55.34712 | 37 ft | 20 kts | 121° |
| 2026-04-26 16:30 | 25.25899 | 55.34839 | 37 ft | 17 kts | 121° |
| 2026-04-26 16:30 | 25.25847 | 55.34935 | 37 ft | 6 kts | 121° |
| 2026-04-26 16:30 | 25.25845 | 55.34938 | 37 ft | 0 kts | 121° |
| 2026-04-26 16:30 | 25.25839 | 55.34949 | 37 ft | 4 kts | 121° |
| 2026-04-26 16:31 | 25.25817 | 55.34994 | 37 ft | 9 kts | 107° |
| 2026-04-26 16:31 | 25.25842 | 55.35060 | 37 ft | 12 kts | 32° |
| 2026-04-26 16:31 | 25.25932 | 55.35120 | 37 ft | 17 kts | 31° |
| 2026-04-26 16:31 | 25.26036 | 55.35191 | 37 ft | 17 kts | 31° |
| 2026-04-26 16:32 | 25.26076 | 55.35218 | 37 ft | 0 kts | 31° |
| 2026-04-26 16:33 | 25.26084 | 55.35223 | 37 ft | 3 kts | 31° |
| 2026-04-26 16:33 | 25.26110 | 55.35244 | 37 ft | 5 kts | 46° |
| 2026-04-26 16:33 | 25.26118 | 55.35290 | 37 ft | 7 kts | 110° |
| 2026-04-26 16:34 | 25.26085 | 55.35356 | 37 ft | 13 kts | 121° |
| 2026-04-26 16:34 | 25.26024 | 55.35464 | 37 ft | 19 kts | 121° |
| 2026-04-26 16:34 | 25.25944 | 55.35609 | 37 ft | 23 kts | 122° |
| 2026-04-26 16:34 | 25.25860 | 55.35758 | 37 ft | 22 kts | 121° |
| 2026-04-26 16:35 | 25.25781 | 55.35899 | 37 ft | 20 kts | 120° |
| 2026-04-26 16:35 | 25.25709 | 55.36029 | 37 ft | 19 kts | 122° |
| 2026-04-26 16:35 | 25.25642 | 55.36151 | 37 ft | 17 kts | 120° |
| 2026-04-26 16:35 | 25.25581 | 55.36263 | 37 ft | 16 kts | 123° |
| 2026-04-26 16:36 | 25.25522 | 55.36368 | 37 ft | 16 kts | 121° |
| 2026-04-26 16:36 | 25.25463 | 55.36475 | 37 ft | 16 kts | 120° |
| 2026-04-26 16:36 | 25.25397 | 55.36594 | 37 ft | 19 kts | 121° |
| 2026-04-26 16:36 | 25.25320 | 55.36733 | 37 ft | 22 kts | 121° |
| 2026-04-26 16:37 | 25.25231 | 55.36892 | 37 ft | 25 kts | 122° |
| 2026-04-26 16:37 | 25.25133 | 55.37069 | 37 ft | 28 kts | 122° |
| 2026-04-26 16:37 | 25.25028 | 55.37260 | 37 ft | 28 kts | 122° |
| 2026-04-26 16:37 | 25.24942 | 55.37415 | 37 ft | 16 kts | 122° |
| 2026-04-26 16:38 | 25.24887 | 55.37514 | 37 ft | 14 kts | 121° |
| 2026-04-26 16:38 | 25.24837 | 55.37605 | 37 ft | 13 kts | 121° |
| 2026-04-26 16:38 | 25.24791 | 55.37688 | 37 ft | 12 kts | 122° |
| 2026-04-26 16:38 | 25.24749 | 55.37764 | 37 ft | 11 kts | 122° |
| 2026-04-26 16:39 | 25.24717 | 55.37835 | 37 ft | 9 kts | 95° |
| 2026-04-26 16:39 | 25.24741 | 55.37882 | 37 ft | 6 kts | 34° |
| 2026-04-26 16:39 | 25.24775 | 55.37907 | 37 ft | 5 kts | 31° |
| 2026-04-26 16:39 | 25.24805 | 55.37925 | 37 ft | 5 kts | 29° |
| 2026-04-26 16:40 | 25.24844 | 55.37940 | 37 ft | 4 kts | 343° |
| 2026-04-26 16:40 | 25.24871 | 55.37906 | 37 ft | 16 kts | 303° |
| 2026-04-26 16:40 | 25.25057 | 55.37573 | 37 ft | 83 kts | 301° |
| 2026-04-26 16:40 | 25.25460 | 55.36847 | 37 ft | 139 kts | 301° |
| 2026-04-26 16:41 | 25.26026 | 55.35821 | 246 ft | 165 kts | 300° |
| 2026-04-26 16:41 | 25.26621 | 55.34755 | 818 ft | 165 kts | 300° |
| 2026-04-26 16:41 | 25.27230 | 55.33659 | 1265 ft | 175 kts | 299° |
| 2026-04-26 16:41 | 25.27900 | 55.32446 | 1590 ft | 194 kts | 299° |
| 2026-04-26 16:42 | 25.28495 | 55.31070 | 2015 ft | 204 kts | 283° |
| 2026-04-26 16:42 | 25.28696 | 55.29489 | 2417 ft | 217 kts | 270° |
| 2026-04-26 16:42 | 25.28577 | 55.27794 | 2958 ft | 228 kts | 257° |
| 2026-04-26 16:42 | 25.28087 | 55.26095 | 3704 ft | 234 kts | 246° |
| 2026-04-26 16:43 | 25.27431 | 55.24475 | 4579 ft | 234 kts | 244° |
| 2026-04-26 16:43 | 25.26744 | 55.22848 | 5394 ft | 237 kts | 243° |
| 2026-04-26 16:43 | 25.26040 | 55.21191 | 6186 ft | 241 kts | 243° |
| 2026-04-26 16:43 | 25.25333 | 55.19526 | 6905 ft | 246 kts | 242° |
| 2026-04-26 16:44 | 25.24444 | 55.17855 | 7001 ft | 254 kts | 223° |
| 2026-04-26 16:44 | 25.22940 | 55.16856 | 7042 ft | 255 kts | 193° |
| 2026-04-26 16:44 | 25.21144 | 55.16958 | 7227 ft | 275 kts | 159° |
| 2026-04-26 16:44 | 25.19513 | 55.18036 | 8004 ft | 279 kts | 143° |
| 2026-04-26 16:45 | 25.18033 | 55.19453 | 8811 ft | 281 kts | 136° |
| 2026-04-26 16:45 | 25.16763 | 55.21068 | 9593 ft | 284 kts | 126° |
| 2026-04-26 16:45 | 25.15739 | 55.22926 | 10365 ft | 287 kts | 120° |
| 2026-04-26 16:45 | 25.14791 | 55.24862 | 11130 ft | 289 kts | 119° |
| 2026-04-26 16:46 | 25.13850 | 55.26814 | 11883 ft | 291 kts | 118° |
| 2026-04-26 16:46 | 25.12901 | 55.28786 | 12618 ft | 293 kts | 118° |
| 2026-04-26 16:46 | 25.11947 | 55.30769 | 13338 ft | 296 kts | 119° |
| 2026-04-26 16:46 | 25.10982 | 55.32774 | 14057 ft | 299 kts | 119° |
| 2026-04-26 16:47 | 25.10045 | 55.34833 | 14744 ft | 303 kts | 116° |
| 2026-04-26 16:47 | 25.09161 | 55.36945 | 14839 ft | 307 kts | 115° |
| 2026-04-26 16:47 | 25.08291 | 55.39060 | 14859 ft | 303 kts | 115° |
| 2026-04-26 16:47 | 25.07411 | 55.41202 | 14863 ft | 303 kts | 115° |
| 2026-04-26 16:48 | 25.06585 | 55.43259 | 14876 ft | 313 kts | 114° |
| 2026-04-26 16:48 | 25.05683 | 55.45599 | 14872 ft | 336 kts | 113° |
| 2026-04-26 16:48 | 25.04766 | 55.47992 | 14864 ft | 340 kts | 113° |
| 2026-04-26 16:48 | 25.03851 | 55.50380 | 14864 ft | 339 kts | 113° |
| 2026-04-26 16:49 | 25.02935 | 55.52769 | 14865 ft | 339 kts | 113° |
| 2026-04-26 16:49 | 25.02006 | 55.55168 | 14864 ft | 340 kts | 115° |
| 2026-04-26 16:49 | 25.00869 | 55.57439 | 14868 ft | 340 kts | 120° |
| 2026-04-26 16:49 | 24.99661 | 55.59687 | 14863 ft | 341 kts | 120° |
| 2026-04-26 16:50 | 24.98432 | 55.61964 | 14862 ft | 341 kts | 120° |
| 2026-04-26 16:50 | 24.97224 | 55.64201 | 14860 ft | 342 kts | 120° |
| 2026-04-26 16:50 | 24.96173 | 55.66147 | 14861 ft | 343 kts | 120° |
| 2026-04-26 16:50 | 24.94827 | 55.68637 | 14860 ft | 343 kts | 120° |
| 2026-04-26 16:51 | 24.93534 | 55.70871 | 14860 ft | 343 kts | 125° |
| 2026-04-26 16:51 | 24.92139 | 55.72982 | 14858 ft | 344 kts | 125° |
| 2026-04-26 16:51 | 24.90728 | 55.75108 | 14857 ft | 344 kts | 125° |
| 2026-04-26 16:51 | 24.89500 | 55.76959 | 14856 ft | 344 kts | 125° |
| 2026-04-26 16:52 | 24.88637 | 55.78260 | 14855 ft | 344 kts | 125° |
| 2026-04-26 16:52 | 24.85708 | 55.82671 | 14850 ft | 344 kts | 125° |
| 2026-04-26 16:52 | 24.83687 | 55.85712 | 14846 ft | 345 kts | 126° |
| 2026-04-26 16:53 | 24.82234 | 55.87866 | 14854 ft | 363 kts | 126° |
| 2026-04-26 16:53 | 24.80694 | 55.90140 | 14837 ft | 371 kts | 126° |
| 2026-04-26 16:53 | 24.79153 | 55.92412 | 14833 ft | 371 kts | 126° |
| 2026-04-26 16:53 | 24.77469 | 55.94564 | 14844 ft | 372 kts | 135° |
| 2026-04-26 16:54 | 24.75574 | 55.96540 | 14851 ft | 378 kts | 136° |
| 2026-04-26 16:54 | 24.73657 | 55.98511 | 14851 ft | 384 kts | 136° |
| 2026-04-26 16:54 | 24.71694 | 56.00526 | 14860 ft | 390 kts | 136° |
| 2026-04-26 16:54 | 24.69701 | 56.02572 | 14858 ft | 392 kts | 136° |
| 2026-04-26 16:55 | 24.67684 | 56.04644 | 14860 ft | 391 kts | 136° |
| 2026-04-26 16:55 | 24.65709 | 56.06674 | 14859 ft | 391 kts | 136° |
| 2026-04-26 16:55 | 24.63719 | 56.08720 | 14857 ft | 392 kts | 136° |
| 2026-04-26 16:55 | 24.61730 | 56.10765 | 14856 ft | 391 kts | 136° |
| 2026-04-26 16:56 | 24.57720 | 56.14883 | 15020 ft | 398 kts | 135° |
| 2026-04-26 16:56 | 24.55820 | 56.17077 | 15846 ft | 395 kts | 130° |
| 2026-04-26 16:56 | 24.54030 | 56.19343 | 16521 ft | 396 kts | 130° |
| 2026-04-26 16:57 | 24.52213 | 56.21660 | 17148 ft | 399 kts | 130° |
| 2026-04-26 16:57 | 24.50411 | 56.23959 | 17750 ft | 402 kts | 130° |
| 2026-04-26 16:57 | 24.46733 | 56.28648 | 18836 ft | 409 kts | 130° |
| 2026-04-26 16:58 | 24.44874 | 56.31015 | 18878 ft | 410 kts | 130° |
| 2026-04-26 16:58 | 24.44273 | 56.31779 | 18882 ft | 409 kts | 130° |
| 2026-04-26 16:58 | 24.39340 | 56.38055 | 18889 ft | 407 kts | 130° |
| 2026-04-26 16:59 | 24.37483 | 56.40413 | 18895 ft | 407 kts | 130° |
| 2026-04-26 16:59 | 24.33773 | 56.45124 | 18904 ft | 407 kts | 130° |
| 2026-04-26 17:00 | 24.30084 | 56.49818 | 18898 ft | 407 kts | 129° |
| 2026-04-26 17:00 | 24.26689 | 56.54774 | 18877 ft | 408 kts | 126° |
| 2026-04-26 17:00 | 24.25031 | 56.57294 | 18865 ft | 408 kts | 126° |
| 2026-04-26 17:01 | 24.23386 | 56.59784 | 18854 ft | 408 kts | 126° |
| 2026-04-26 17:01 | 24.21709 | 56.62318 | 18842 ft | 408 kts | 126° |
| 2026-04-26 17:01 | 24.20035 | 56.64845 | 18831 ft | 408 kts | 126° |
| 2026-04-26 17:01 | 24.18457 | 56.67224 | 18831 ft | 408 kts | 126° |
| 2026-04-26 17:02 | 24.16765 | 56.69773 | 18831 ft | 408 kts | 126° |
| 2026-04-26 17:02 | 24.15089 | 56.72296 | 18831 ft | 408 kts | 126° |
| 2026-04-26 17:02 | 24.13435 | 56.74783 | 18837 ft | 408 kts | 126° |
| 2026-04-26 17:02 | 24.11755 | 56.77309 | 18841 ft | 408 kts | 126° |
| 2026-04-26 17:03 | 24.10077 | 56.79830 | 18843 ft | 408 kts | 126° |
| 2026-04-26 17:03 | 24.08417 | 56.82323 | 18843 ft | 408 kts | 126° |
| 2026-04-26 17:03 | 24.06751 | 56.84824 | 18840 ft | 408 kts | 126° |
| 2026-04-26 17:03 | 24.05060 | 56.87360 | 18835 ft | 408 kts | 126° |
| 2026-04-26 17:04 | 24.03378 | 56.89880 | 18830 ft | 408 kts | 126° |
| 2026-04-26 17:04 | 24.01711 | 56.92374 | 18829 ft | 407 kts | 126° |
| 2026-04-26 17:04 | 24.00042 | 56.94871 | 18829 ft | 407 kts | 127° |
| 2026-04-26 17:04 | 23.98380 | 56.97355 | 18832 ft | 406 kts | 127° |
| 2026-04-26 17:05 | 23.96708 | 56.99853 | 18838 ft | 406 kts | 127° |
| 2026-04-26 17:05 | 23.95068 | 57.02303 | 18841 ft | 405 kts | 127° |
| 2026-04-26 17:05 | 23.93413 | 57.04773 | 18842 ft | 404 kts | 127° |
| 2026-04-26 17:05 | 23.91739 | 57.07269 | 18841 ft | 404 kts | 127° |
| 2026-04-26 17:06 | 23.90096 | 57.09718 | 18837 ft | 403 kts | 127° |
| 2026-04-26 17:06 | 23.88835 | 57.11598 | 18837 ft | 403 kts | 127° |
| 2026-04-26 17:06 | 23.87524 | 57.13552 | 18832 ft | 403 kts | 127° |
| 2026-04-26 17:06 | 23.85881 | 57.15998 | 18832 ft | 403 kts | 127° |
| 2026-04-26 17:07 | 23.84237 | 57.18446 | 18832 ft | 403 kts | 127° |
| 2026-04-26 17:07 | 23.82559 | 57.20943 | 18831 ft | 403 kts | 127° |
| 2026-04-26 17:07 | 23.80922 | 57.23379 | 18831 ft | 403 kts | 127° |
| 2026-04-26 17:07 | 23.79244 | 57.25873 | 18831 ft | 403 kts | 127° |
| 2026-04-26 17:08 | 23.77611 | 57.28319 | 18831 ft | 403 kts | 126° |
| 2026-04-26 17:08 | 23.76063 | 57.30894 | 18817 ft | 399 kts | 121° |
| 2026-04-26 17:08 | 23.74745 | 57.33495 | 18348 ft | 391 kts | 117° |
| 2026-04-26 17:08 | 23.73630 | 57.36127 | 17578 ft | 389 kts | 114° |
| 2026-04-26 17:09 | 23.72648 | 57.38847 | 16840 ft | 385 kts | 110° |
| 2026-04-26 17:09 | 23.72353 | 57.39761 | 16594 ft | 384 kts | 109° |
| 2026-04-26 17:09 | 23.71135 | 57.44330 | 15392 ft | 378 kts | 103° |
| 2026-04-26 17:09 | 23.70615 | 57.47064 | 14683 ft | 375 kts | 100° |
| 2026-04-26 17:10 | 23.70203 | 57.49865 | 13961 ft | 371 kts | 99° |
| 2026-04-26 17:10 | 23.69813 | 57.52611 | 13244 ft | 368 kts | 98° |
| 2026-04-26 17:10 | 23.69429 | 57.55306 | 13017 ft | 362 kts | 98° |
| 2026-04-26 17:10 | 23.69040 | 57.58032 | 12991 ft | 366 kts | 98° |
| 2026-04-26 17:11 | 23.68657 | 57.60704 | 12989 ft | 367 kts | 98° |
| 2026-04-26 17:11 | 23.68265 | 57.63437 | 12990 ft | 367 kts | 98° |
| 2026-04-26 17:11 | 23.67916 | 57.65859 | 12992 ft | 367 kts | 99° |
| 2026-04-26 17:11 | 23.67478 | 57.68895 | 12994 ft | 367 kts | 99° |
| 2026-04-26 17:12 | 23.66682 | 57.74392 | 12993 ft | 366 kts | 99° |
| 2026-04-26 17:12 | 23.66289 | 57.77094 | 12590 ft | 359 kts | 99° |
| 2026-04-26 17:13 | 23.65508 | 57.82461 | 11017 ft | 358 kts | 99° |
| 2026-04-26 17:13 | 23.65127 | 57.85077 | 10658 ft | 344 kts | 99° |
| 2026-04-26 17:13 | 23.64403 | 57.90031 | 10214 ft | 317 kts | 99° |
| 2026-04-26 17:14 | 23.64065 | 57.92345 | 9986 ft | 301 kts | 99° |
| 2026-04-26 17:14 | 23.63433 | 57.96662 | 9519 ft | 282 kts | 100° |
| 2026-04-26 17:14 | 23.63121 | 57.98782 | 9105 ft | 282 kts | 100° |
| 2026-04-26 17:15 | 23.62505 | 58.02970 | 8318 ft | 280 kts | 100° |
| 2026-04-26 17:15 | 23.62198 | 58.05056 | 7928 ft | 280 kts | 100° |
| 2026-04-26 17:15 | 23.61888 | 58.07161 | 7536 ft | 279 kts | 101° |
| 2026-04-26 17:16 | 23.61582 | 58.09230 | 7151 ft | 278 kts | 101° |
| 2026-04-26 17:16 | 23.61274 | 58.11316 | 6764 ft | 278 kts | 101° |
| 2026-04-26 17:16 | 23.60984 | 58.13394 | 6377 ft | 277 kts | 96° |
| 2026-04-26 17:16 | 23.61081 | 58.15448 | 6041 ft | 277 kts | 83° |
| 2026-04-26 17:17 | 23.61404 | 58.17506 | 5989 ft | 269 kts | 82° |
| 2026-04-26 17:17 | 23.61739 | 58.19459 | 5989 ft | 259 kts | 81° |
| 2026-04-26 17:17 | 23.62074 | 58.21395 | 5993 ft | 258 kts | 81° |
| 2026-04-26 17:17 | 23.62403 | 58.23301 | 5947 ft | 253 kts | 81° |
| 2026-04-26 17:18 | 23.62727 | 58.25175 | 5738 ft | 248 kts | 81° |
| 2026-04-26 17:18 | 23.63041 | 58.26991 | 5666 ft | 239 kts | 81° |
| 2026-04-26 17:18 | 23.63344 | 58.28752 | 5451 ft | 235 kts | 82° |
| 2026-04-26 17:18 | 23.63647 | 58.30512 | 5046 ft | 237 kts | 81° |
| 2026-04-26 17:19 | 23.64256 | 58.34061 | 4319 ft | 237 kts | 81° |
| 2026-04-26 17:19 | 23.64558 | 58.35823 | 3971 ft | 236 kts | 81° |
| 2026-04-26 17:19 | 23.64858 | 58.37573 | 3628 ft | 235 kts | 81° |
| 2026-04-26 17:20 | 23.65153 | 58.39293 | 3473 ft | 225 kts | 81° |
| 2026-04-26 17:20 | 23.65247 | 58.39843 | 3494 ft | 216 kts | 81° |
| 2026-04-26 17:20 | 23.65686 | 58.42392 | 3178 ft | 198 kts | 81° |
| 2026-04-26 17:20 | 23.65937 | 58.43866 | 3005 ft | 195 kts | 81° |
| 2026-04-26 17:21 | 23.66185 | 58.45319 | 2988 ft | 191 kts | 81° |
| 2026-04-26 17:21 | 23.66421 | 58.46706 | 2992 ft | 186 kts | 81° |
| 2026-04-26 17:21 | 23.66656 | 58.48097 | 2993 ft | 186 kts | 81° |
| 2026-04-26 17:21 | 23.66880 | 58.49495 | 2990 ft | 185 kts | 88° |
| 2026-04-26 17:22 | 23.66544 | 58.50792 | 3014 ft | 179 kts | 131° |
| 2026-04-26 17:22 | 23.65500 | 58.51452 | 3005 ft | 177 kts | 175° |
| 2026-04-26 17:22 | 23.64347 | 58.51116 | 3020 ft | 177 kts | 215° |
| 2026-04-26 17:22 | 23.63451 | 58.50183 | 2994 ft | 179 kts | 227° |
| 2026-04-26 17:23 | 23.62708 | 58.49106 | 2985 ft | 179 kts | 242° |
| 2026-04-26 17:23 | 23.62403 | 58.47815 | 3021 ft | 178 kts | 259° |
| 2026-04-26 17:23 | 23.62257 | 58.46474 | 2990 ft | 177 kts | 262° |
| 2026-04-26 17:23 | 23.62133 | 58.45118 | 2858 ft | 179 kts | 262° |
| 2026-04-26 17:24 | 23.62023 | 58.43818 | 2668 ft | 166 kts | 262° |
| 2026-04-26 17:24 | 23.61923 | 58.42580 | 2436 ft | 160 kts | 263° |
| 2026-04-26 17:24 | 23.61827 | 58.41378 | 2226 ft | 160 kts | 263° |
| 2026-04-26 17:24 | 23.61731 | 58.40173 | 2008 ft | 159 kts | 263° |
| 2026-04-26 17:25 | 23.61636 | 58.38979 | 1792 ft | 158 kts | 263° |
| 2026-04-26 17:25 | 23.61542 | 58.37785 | 1563 ft | 159 kts | 263° |
| 2026-04-26 17:25 | 23.61448 | 58.36577 | 1342 ft | 157 kts | 263° |
| 2026-04-26 17:25 | 23.61354 | 58.35412 | 1122 ft | 154 kts | 264° |
| 2026-04-26 17:26 | 23.61323 | 58.34970 | 1047 ft | 153 kts | 264° |
| 2026-04-26 17:26 | 23.61246 | 58.33826 | 847 ft | 151 kts | 264° |
| 2026-04-26 17:26 | 23.61150 | 58.32676 | 650 ft | 152 kts | 263° |
| 2026-04-26 17:26 | 23.61053 | 58.31514 | 445 ft | 153 kts | 264° |
| 2026-04-26 17:27 | 23.60969 | 58.30348 | 246 ft | 154 kts | 264° |
| 2026-04-26 17:27 | 23.60867 | 58.29194 | 70 ft | 154 kts | 264° |
| 2026-04-26 17:27 | 23.60780 | 58.28126 | 52 ft | 113 kts | 265° |
| 2026-04-26 17:27 | 23.60733 | 58.27552 | 52 ft | 47 kts | 265° |
| 2026-04-26 17:28 | 23.60712 | 58.27282 | 52 ft | 30 kts | 263° |
| 2026-04-26 17:28 | 23.60669 | 58.27089 | 52 ft | 20 kts | 245° |
| 2026-04-26 17:28 | 23.60609 | 58.26978 | 52 ft | 11 kts | 234° |
| 2026-04-26 17:28 | 23.60565 | 58.26911 | 52 ft | 10 kts | 233° |
| 2026-04-26 17:29 | 23.60525 | 58.26853 | 52 ft | 9 kts | 233° |
| 2026-04-26 17:29 | 23.60514 | 58.26835 | 52 ft | 8 kts | 236° |
| 2026-04-26 17:29 | 23.60455 | 58.26782 | 52 ft | 5 kts | 184° |
| 2026-04-26 17:29 | 23.60427 | 58.26791 | 52 ft | 4 kts | 147° |
| 2026-04-26 17:30 | 23.60414 | 58.26835 | 52 ft | 8 kts | 81° |
| 2026-04-26 17:30 | 23.60423 | 58.26924 | 52 ft | 14 kts | 85° |
| 2026-04-26 17:30 | 23.60434 | 58.27060 | 52 ft | 21 kts | 86° |
| 2026-04-26 17:30 | 23.60449 | 58.27241 | 52 ft | 26 kts | 85° |
| 2026-04-26 17:31 | 23.60466 | 58.27455 | 52 ft | 28 kts | 85° |
| 2026-04-26 17:31 | 23.60460 | 58.27611 | 52 ft | 16 kts | 121° |
| 2026-04-26 17:31 | 23.60386 | 58.27710 | 52 ft | 16 kts | 130° |
| 2026-04-26 17:31 | 23.60314 | 58.27803 | 52 ft | 15 kts | 130° |
| 2026-04-26 17:32 | 23.60246 | 58.27892 | 52 ft | 14 kts | 123° |
| 2026-04-26 17:32 | 23.60239 | 58.27990 | 52 ft | 12 kts | 85° |
| 2026-04-26 17:32 | 23.60246 | 58.28080 | 52 ft | 11 kts | 85° |
| 2026-04-26 17:32 | 23.60252 | 58.28163 | 52 ft | 11 kts | 84° |
| 2026-04-26 17:33 | 23.60251 | 58.28232 | 52 ft | 4 kts | 143° |
| 2026-04-26 17:33 | 23.60219 | 58.28245 | 52 ft | 5 kts | 168° |
| 2026-04-26 17:33 | 23.60176 | 58.28250 | 52 ft | 7 kts | 175° |
| 2026-04-26 17:34 | 23.60149 | 58.28252 | 52 ft | 0 kts | 174° |